Time;durP1;ratioP1;P1;durP2;ratioP2;P2;SDS_P1;SDS_P2;PMS_P1;PMS_P2;Temp;Humidity;BMP_temperature;BMP_pressure;BME280_temperature;BME280_humidity;BME280_pressure;Samples;Min_cycle;Max_cycle;Signal;HPM_P1;HPM_P2
2023/11/19 00:00:24;;;;;;;;;;;;;;;17.85;56.88;100666.91;7391428;19;1161;-47
2023/11/19 00:02:52;;;;;;;;;;;;;;;17.87;56.88;100661.44;7392039;19;1981;-47
2023/11/19 00:05:23;;;;;;;;;;;;;;;17.87;56.97;100664.94;7391936;19;1503;-45
2023/11/19 00:07:51;;;;;;;;;;;;;;;17.86;57.03;100665.91;7391927;19;1407;-47
2023/11/19 00:10:21;;;;;;;;;;;;;;;17.88;57.07;100660.44;7390942;19;1138;-47
2023/11/19 00:12:49;;;;;;;;;;;;;;;17.83;56.93;100659.97;7391778;19;1415;-47
2023/11/19 00:15:19;;;;;;;;;;;;;;;17.82;56.82;100659.09;7390267;19;1519;-47
2023/11/19 00:17:47;;;;;;;;;;;;;;;17.81;57.15;100660.09;7392327;19;1542;-47
2023/11/19 00:20:16;;;;;;;;;;;;;;;17.80;57.10;100655.69;7390895;19;1852;-47
2023/11/19 00:22:48;;;;;;;;;;;;;;;17.82;57.06;100658.25;7395470;19;1841;-47
2023/11/19 00:25:16;;;;;;;;;;;;;;;17.80;57.03;100671.75;7397711;19;1610;-47
2023/11/19 00:27:46;;;;;;;;;;;;;;;17.79;57.07;100651.34;7398194;19;1526;-47
2023/11/19 00:30:15;;;;;;;;;;;;;;;17.77;57.20;100660.50;7398200;19;1495;-47
2023/11/19 00:32:43;;;;;;;;;;;;;;;17.81;56.96;100678.81;7399047;19;1580;-47
2023/11/19 00:35:13;;;;;;;;;;;;;;;17.81;56.98;100680.66;7398099;19;1503;-47
2023/11/19 00:37:42;;;;;;;;;;;;;;;17.82;56.84;100666.28;7399028;19;1523;-47
2023/11/19 00:40:15;;;;;;;;;;;;;;;17.84;56.70;100665.19;7398382;19;1540;-47
2023/11/19 00:42:44;;;;;;;;;;;;;;;17.90;56.72;100679.88;7397965;19;1858;-47
2023/11/19 00:45:12;;;;;;;;;;;;;;;17.82;56.87;100653.75;7397157;19;1470;-47
2023/11/19 00:47:41;;;;;;;;;;;;;;;17.84;56.88;100667.88;7398926;19;1560;-47
2023/11/19 00:50:12;;;;;;;;;;;;;;;17.80;56.81;100671.75;7399036;19;1448;-47
2023/11/19 00:52:41;;;;;;;;;;;;;;;17.78;57.21;100660.31;7397293;19;1443;-47
2023/11/19 00:55:09;;;;;;;;;;;;;;;17.78;57.05;100667.50;7396142;19;1471;-47
2023/11/19 00:57:40;;;;;;;;;;;;;;;17.77;56.95;100649.78;7395609;19;1541;-47
2023/11/19 01:00:18;;;;;;;;;;;;;;;17.76;57.11;100654.25;7397624;19;1526;-47
2023/11/19 01:02:46;;;;;;;;;;;;;;;17.83;56.93;100660.84;7400394;19;1067;-47
2023/11/19 01:05:17;;;;;;;;;;;;;;;17.91;56.72;100656.66;7397492;19;1472;-47
2023/11/19 01:07:47;;;;;;;;;;;;;;;17.85;56.88;100656.19;7398125;19;1530;-47
2023/11/19 01:10:15;;;;;;;;;;;;;;;17.87;56.83;100650.72;7397174;19;1589;-47
2023/11/19 01:12:46;;;;;;;;;;;;;;;17.85;56.82;100669.56;7398607;19;1620;-47
2023/11/19 01:15:15;;;;;;;;;;;;;;;17.91;56.88;100664.69;7396622;19;1597;-47
2023/11/19 01:17:43;;;;;;;;;;;;;;;17.89;56.79;100670.16;7397756;19;1159;-47
2023/11/19 01:20:13;;;;;;;;;;;;;;;17.91;56.75;100684.25;7398147;19;1459;-47
2023/11/19 01:22:41;;;;;;;;;;;;;;;17.85;56.75;100653.53;7398315;19;1534;-47
2023/11/19 01:25:10;;;;;;;;;;;;;;;17.80;56.81;100661.03;7393952;19;1857;-47
2023/11/19 01:27:38;;;;;;;;;;;;;;;17.78;57.10;100646.97;7396593;19;1406;-47
2023/11/19 01:30:12;;;;;;;;;;;;;;;17.78;56.86;100660.31;7397620;19;1609;-47
2023/11/19 01:32:41;;;;;;;;;;;;;;;17.78;56.90;100673.69;7395704;19;1502;-47
2023/11/19 01:35:09;;;;;;;;;;;;;;;17.72;57.14;100660.84;7395191;19;1535;-47
2023/11/19 01:37:38;;;;;;;;;;;;;;;17.76;57.14;100667.63;7397186;19;1584;-47
2023/11/19 01:40:10;;;;;;;;;;;;;;;17.72;57.00;100658.19;7396297;19;1416;-47
2023/11/19 01:42:41;;;;;;;;;;;;;;;17.74;56.94;100660.72;7396246;19;1463;-47
2023/11/19 01:45:24;;;;;;;;;;;;;;;17.77;56.95;100661.31;7393612;19;1856;-47
2023/11/19 01:47:53;;;;;;;;;;;;;;;17.82;56.82;100668.94;7396297;19;1458;-47
2023/11/19 01:50:22;;;;;;;;;;;;;;;17.83;56.93;100665.31;7395084;19;2028;-47
2023/11/19 01:52:50;;;;;;;;;;;;;;;17.82;56.84;100659.09;7396471;19;1628;-47
2023/11/19 01:55:19;;;;;;;;;;;;;;;17.82;56.90;100672.47;7395971;19;1752;-47
2023/11/19 01:57:48;;;;;;;;;;;;;;;17.75;56.97;100652.59;7396261;19;1508;-47
2023/11/19 02:00:21;;;;;;;;;;;;;;;17.77;57.10;100665.84;7395606;19;1574;-47
2023/11/19 02:02:52;;;;;;;;;;;;;;;17.77;57.08;100664.00;7396001;19;1481;-47
2023/11/19 02:05:21;;;;;;;;;;;;;;;17.75;56.97;100652.59;7393270;19;1840;-45
2023/11/19 02:07:50;;;;;;;;;;;;;;;17.73;57.07;100662.56;7395723;19;1561;-47
2023/11/19 02:10:19;;;;;;;;;;;;;;;17.72;57.06;100657.34;7395441;19;1507;-47
2023/11/19 02:12:48;;;;;;;;;;;;;;;17.74;56.91;100655.38;7394832;19;1489;-47
2023/11/19 02:15:18;;;;;;;;;;;;;;;17.74;56.91;100647.34;7395796;19;1453;-47
2023/11/19 02:17:49;;;;;;;;;;;;;;;17.80;56.85;100655.69;7394039;19;1863;-47
2023/11/19 02:20:19;;;;;;;;;;;;;;;17.83;56.78;100658.16;7395648;19;1455;-47
2023/11/19 02:22:48;;;;;;;;;;;;;;;17.89;56.67;100665.66;7394773;19;1588;-47
2023/11/19 02:25:19;;;;;;;;;;;;;;;18.65;54.77;100670.69;7392943;19;1850;-47
2023/11/19 02:27:55;;;;;;;;;;;;;;;18.97;54.47;100671.53;7394796;19;1577;-47
2023/11/19 02:30:26;;;;;;;;;;;;;;;19.89;52.01;100646.16;7395224;19;1597;-47
2023/11/19 02:32:56;;;;;;;;;;;;;;;20.66;50.45;100651.28;7395164;19;1541;-47
2023/11/19 02:35:25;;;;;;;;;;;;;;;20.60;50.38;100651.88;7394222;19;1621;-47
2023/11/19 02:37:54;;;;;;;;;;;;;;;20.60;50.45;100651.06;7394699;19;1477;-47
2023/11/19 02:40:22;;;;;;;;;;;;;;;20.62;50.28;100644.53;7394728;19;1455;-47
2023/11/19 02:42:54;;;;;;;;;;;;;;;20.98;49.79;100639.22;7394665;19;1573;-47
2023/11/19 02:45:22;;;;;;;;;;;;;;;21.03;49.44;100646.84;7392235;19;1854;-47
2023/11/19 02:47:50;;;;;;;;;;;;;;;20.80;49.95;100646.41;7394159;19;1296;-47
2023/11/19 02:50:24;;;;;;;;;;;;;;;20.74;50.33;100647.03;7394309;19;1495;-47
2023/11/19 02:52:56;;;;;;;;;;;;;;;20.71;50.35;100655.38;7394813;19;1447;-47
2023/11/19 02:55:24;;;;;;;;;;;;;;;20.69;50.43;100642.09;7394552;19;1499;-47
2023/11/19 02:57:56;;;;;;;;;;;;;;;20.81;50.02;100648.09;7394312;19;1478;-47
2023/11/19 03:00:32;;;;;;;;;;;;;;;20.76;50.48;100655.78;7394417;19;1486;-47
2023/11/19 03:03:09;;;;;;;;;;;;;;;20.87;50.20;100660.97;7393972;19;1271;-47
2023/11/19 03:05:40;;;;;;;;;;;;;;;20.91;49.98;100667.72;7390647;19;1845;-47
2023/11/19 03:08:08;;;;;;;;;;;;;;;20.84;50.14;100669.31;7394079;19;1645;-47
2023/11/19 03:10:37;;;;;;;;;;;;;;;20.77;50.18;100677.13;7393266;19;1440;-47
2023/11/19 03:13:08;;;;;;;;;;;;;;;20.89;50.20;100683.16;7393554;19;1133;-47
2023/11/19 03:15:36;;;;;;;;;;;;;;;20.96;50.04;100678.84;7393141;19;1884;-47
2023/11/19 03:18:04;;;;;;;;;;;;;;;20.59;50.01;100626.03;7392498;19;1543;-47
2023/11/19 03:20:33;;;;;;;;;;;;;;;20.95;50.08;100674.50;7393382;19;1383;-47
2023/11/19 03:23:01;;;;;;;;;;;;;;;21.00;49.96;100680.25;7393264;19;1652;-47
2023/11/19 03:25:33;;;;;;;;;;;;;;;21.05;49.80;100667.19;7391858;19;1864;-47
2023/11/19 03:28:01;;;;;;;;;;;;;;;21.11;49.87;100672.97;7392554;19;1471;-47
2023/11/19 03:30:33;;;;;;;;;;;;;;;21.06;49.85;100679.63;7393158;19;1555;-47
2023/11/19 03:33:02;;;;;;;;;;;;;;;21.08;49.79;100646.38;7394304;19;1183;-47
2023/11/19 03:35:31;;;;;;;;;;;;;;;21.08;49.80;100651.75;7392351;19;1645;-47
2023/11/19 03:37:59;;;;;;;;;;;;;;;21.15;49.65;100652.84;7392164;19;1533;-47
2023/11/19 03:40:27;;;;;;;;;;;;;;;21.16;49.75;100667.97;7392229;19;1542;-47
2023/11/19 03:42:56;;;;;;;;;;;;;;;21.18;49.72;100665.97;7392789;19;1521;-47
2023/11/19 03:45:24;;;;;;;;;;;;;;;21.19;49.90;100671.22;7391041;19;1855;-47
2023/11/19 03:47:55;;;;;;;;;;;;;;;21.20;49.76;100674.75;7392483;19;1518;-47
2023/11/19 03:50:24;;;;;;;;;;;;;;;21.20;49.64;100680.97;7392173;19;1449;-47
2023/11/19 03:52:52;;;;;;;;;;;;;;;21.22;49.85;100694.25;7392892;19;1478;-47
2023/11/19 03:55:20;;;;;;;;;;;;;;;21.12;49.83;100712.31;7392445;19;1943;-47
2023/11/19 03:57:49;;;;;;;;;;;;;;;20.43;51.50;100696.47;7397287;19;1458;-47
2023/11/19 04:00:20;;;;;;;;;;;;;;;19.96;52.53;100711.72;7398743;19;1603;-47
2023/11/19 04:02:49;;;;;;;;;;;;;;;19.73;53.13;100717.34;7399150;19;1564;-47
2023/11/19 04:05:21;;;;;;;;;;;;;;;19.59;53.48;100729.31;7397377;19;1857;-47
2023/11/19 04:07:49;;;;;;;;;;;;;;;19.46;53.71;100726.91;7399752;19;1813;-47
2023/11/19 04:10:20;;;;;;;;;;;;;;;19.41;53.77;100729.16;7400448;19;1240;-47
2023/11/19 04:12:48;;;;;;;;;;;;;;;19.34;53.98;100743.25;7399579;19;1514;-47
2023/11/19 04:15:17;;;;;;;;;;;;;;;19.30;53.92;100725.75;7400317;19;1617;-47
2023/11/19 04:17:45;;;;;;;;;;;;;;;19.19;54.18;100746.34;7400040;19;1465;-47
2023/11/19 04:20:14;;;;;;;;;;;;;;;19.15;53.98;100746.75;7399684;19;1499;-47
2023/11/19 04:22:45;;;;;;;;;;;;;;;19.11;54.22;100761.41;7399526;19;1572;-47
2023/11/19 04:25:15;;;;;;;;;;;;;;;19.04;54.17;100748.56;7397317;19;2506;-47
2023/11/19 04:27:43;;;;;;;;;;;;;;;19.04;54.22;100753.09;7398943;19;1617;-47
2023/11/19 04:30:12;;;;;;;;;;;;;;;18.96;54.16;100759.13;7398742;19;1476;-47
2023/11/19 04:32:40;;;;;;;;;;;;;;;18.96;54.44;100761.81;7398488;19;1490;-47
2023/11/19 04:35:09;;;;;;;;;;;;;;;18.97;54.37;100763.47;7399010;19;1503;-47
2023/11/19 04:37:38;;;;;;;;;;;;;;;18.86;54.40;100745.69;7398282;19;1483;-47
2023/11/19 04:40:09;;;;;;;;;;;;;;;18.77;54.76;100769.72;7399222;19;1495;-47
2023/11/19 04:42:40;;;;;;;;;;;;;;;18.85;54.48;100757.38;7398675;19;1428;-47
2023/11/19 04:45:10;;;;;;;;;;;;;;;18.84;54.25;100758.38;7395979;19;1838;-47
2023/11/19 04:47:38;;;;;;;;;;;;;;;18.84;54.48;100770.88;7396379;19;1513;-47
2023/11/19 04:50:10;;;;;;;;;;;;;;;18.78;54.73;100758.00;7396512;19;1808;-47
2023/11/19 04:52:40;;;;;;;;;;;;;;;18.81;54.48;100758.63;7396324;19;1455;-47
2023/11/19 04:55:14;;;;;;;;;;;;;;;18.75;54.51;100771.69;7394417;19;1552;-47
2023/11/19 04:57:42;;;;;;;;;;;;;;;18.78;54.41;100777.63;7396551;19;1549;-47
2023/11/19 05:00:13;;;;;;;;;;;;;;;18.77;54.69;100767.88;7396380;19;1566;-47
2023/11/19 05:02:41;;;;;;;;;;;;;;;18.78;54.75;100784.78;7396724;19;1427;-47
2023/11/19 05:05:10;;;;;;;;;;;;;;;18.62;55.02;100798.66;7395217;19;1856;-47
2023/11/19 05:07:38;;;;;;;;;;;;;;;18.60;55.11;100793.47;7394864;19;1502;-47
2023/11/19 05:10:08;;;;;;;;;;;;;;;18.51;55.35;100767.47;7396447;19;1488;-47
2023/11/19 05:12:39;;;;;;;;;;;;;;;18.45;55.39;100784.91;7397895;19;1622;-47
2023/11/19 05:15:08;;;;;;;;;;;;;;;18.41;55.65;100782.63;7397015;19;1463;-47
2023/11/19 05:17:37;;;;;;;;;;;;;;;18.57;55.31;100787.50;7397713;19;1553;-46
2023/11/19 05:20:09;;;;;;;;;;;;;;;18.60;54.92;100772.03;7397467;19;2043;-47
2023/11/19 05:22:38;;;;;;;;;;;;;;;18.66;54.79;100797.41;7396867;19;1846;-47
2023/11/19 05:25:07;;;;;;;;;;;;;;;18.61;54.73;100805.84;7396348;19;1838;-47
2023/11/19 05:27:35;;;;;;;;;;;;;;;18.50;55.24;100792.53;7395890;19;1546;-47
2023/11/19 05:30:10;;;;;;;;;;;;;;;18.40;55.19;100805.00;7397100;19;1525;-47
2023/11/19 05:32:38;;;;;;;;;;;;;;;18.32;55.52;100800.31;7396682;19;1534;-47
2023/11/19 05:35:08;;;;;;;;;;;;;;;18.30;55.90;100796.91;7397056;19;1533;-47
2023/11/19 05:37:36;;;;;;;;;;;;;;;18.29;55.84;100805.94;7397784;19;1597;-47
2023/11/19 05:40:11;;;;;;;;;;;;;;;18.32;55.43;100832.44;7395613;19;1573;-47
2023/11/19 05:42:40;;;;;;;;;;;;;;;18.28;55.60;100826.50;7395194;19;1417;-47
2023/11/19 05:45:13;;;;;;;;;;;;;;;18.24;55.78;100830.44;7394039;19;1862;-47
2023/11/19 05:47:41;;;;;;;;;;;;;;;18.28;55.71;100853.28;7396151;19;1471;-47
2023/11/19 05:50:10;;;;;;;;;;;;;;;18.24;55.60;100849.16;7397005;19;1498;-47
2023/11/19 05:52:38;;;;;;;;;;;;;;;18.33;55.41;100862.75;7395559;19;1416;-47
2023/11/19 05:55:09;;;;;;;;;;;;;;;18.40;55.28;100867.47;7396703;19;1565;-47
2023/11/19 05:57:37;;;;;;;;;;;;;;;18.43;55.17;100855.63;7395729;19;1515;-47
2023/11/19 06:00:08;;;;;;;;;;;;;;;18.43;55.07;100844.94;7395939;19;1533;-47
2023/11/19 06:02:39;;;;;;;;;;;;;;;18.32;55.43;100815.53;7396662;19;1575;-47
2023/11/19 06:05:09;;;;;;;;;;;;;;;18.41;55.26;100823.63;7392341;19;1857;-47
2023/11/19 06:07:39;;;;;;;;;;;;;;;18.42;55.20;100837.84;7395814;19;1608;-47
2023/11/19 06:10:09;;;;;;;;;;;;;;;18.43;55.16;100834.22;7394483;19;1407;-47
2023/11/19 06:12:38;;;;;;;;;;;;;;;18.36;55.13;100833.88;7395918;19;1210;-55
2023/11/19 06:15:08;;;;;;;;;;;;;;;18.44;55.23;100823.38;7395010;19;1511;-47
2023/11/19 06:17:39;;;;;;;;;;;;;;;18.36;55.37;100816.97;7394649;19;1543;-47
2023/11/19 06:20:08;;;;;;;;;;;;;;;18.28;55.35;100833.66;7392661;19;1902;-47
2023/11/19 06:22:36;;;;;;;;;;;;;;;18.18;55.53;100825.56;7395043;19;1488;-47
2023/11/19 06:25:07;;;;;;;;;;;;;;;18.16;55.90;100830.19;7394289;19;1846;-47
2023/11/19 06:27:36;;;;;;;;;;;;;;;18.21;55.58;100829.81;7395349;19;1538;-47
2023/11/19 06:30:05;;;;;;;;;;;;;;;18.22;55.55;100829.72;7395599;19;1545;-47
2023/11/19 06:32:33;;;;;;;;;;;;;;;18.35;55.26;100837.53;7395856;19;1808;-47
2023/11/19 06:35:07;;;;;;;;;;;;;;;18.27;55.44;100823.97;7395275;19;1495;-47
2023/11/19 06:37:35;;;;;;;;;;;;;;;18.19;55.62;100816.56;7394597;19;1554;-47
2023/11/19 06:40:04;;;;;;;;;;;;;;;18.14;55.65;100826.78;7393945;19;1404;-47
2023/11/19 06:42:34;;;;;;;;;;;;;;;18.11;55.68;100839.63;7395005;19;1470;-47
2023/11/19 06:45:02;;;;;;;;;;;;;;;18.10;55.84;100830.72;7395189;19;1842;-47
2023/11/19 06:47:31;;;;;;;;;;;;;;;18.05;55.87;100835.63;7395102;19;1512;-47
2023/11/19 06:49:59;;;;;;;;;;;;;;;18.07;56.10;100844.34;7394481;19;1906;-47
2023/11/19 06:52:30;;;;;;;;;;;;;;;18.04;56.24;100841.94;7394648;19;1137;-47
2023/11/19 06:54:59;;;;;;;;;;;;;;;18.04;55.98;100845.44;7394732;19;1570;-47
2023/11/19 06:57:28;;;;;;;;;;;;;;;18.04;56.15;100845.44;7393970;19;1456;-47
2023/11/19 06:59:56;;;;;;;;;;;;;;;18.04;56.11;100844.59;7393913;19;1536;-49
2023/11/19 07:02:24;;;;;;;;;;;;;;;18.11;56.03;100847.63;7394262;19;1498;-47
2023/11/19 07:04:54;;;;;;;;;;;;;;;18.12;55.69;100849.31;7394553;19;1855;-47
2023/11/19 07:07:22;;;;;;;;;;;;;;;18.19;55.57;100843.34;7394419;19;1529;-47
2023/11/19 07:09:53;;;;;;;;;;;;;;;18.17;55.69;100861.34;7393277;19;1444;-47
2023/11/19 07:12:22;;;;;;;;;;;;;;;18.14;55.74;100874.97;7394847;19;1443;-47
2023/11/19 07:14:50;;;;;;;;;;;;;;;18.12;55.61;100884.13;7394071;19;1444;-47
2023/11/19 07:17:18;;;;;;;;;;;;;;;18.13;55.81;100899.22;7394152;19;1565;-47
2023/11/19 07:19:47;;;;;;;;;;;;;;;18.08;55.70;100915.63;7392008;19;1408;-47
2023/11/19 07:22:15;;;;;;;;;;;;;;;18.13;55.90;100924.13;7392429;19;1958;-47
2023/11/19 07:24:43;;;;;;;;;;;;;;;18.18;55.76;100921.06;7393152;19;1444;-47
2023/11/19 07:27:12;;;;;;;;;;;;;;;18.23;55.57;100914.38;7392310;19;1834;-48
2023/11/19 07:29:41;;;;;;;;;;;;;;;18.28;55.27;100930.03;7392123;19;1551;-47
2023/11/19 07:32:09;;;;;;;;;;;;;;;18.23;55.28;100903.66;7392390;19;1367;-47
2023/11/19 07:34:38;;;;;;;;;;;;;;;18.22;55.60;100928.75;7393336;19;1488;-47
2023/11/19 07:37:07;;;;;;;;;;;;;;;18.35;55.43;100925.03;7392781;19;1403;-47
2023/11/19 07:39:36;;;;;;;;;;;;;;;18.32;55.29;100927.97;7393145;19;1523;-52
2023/11/19 07:42:04;;;;;;;;;;;;;;;18.26;55.29;100914.13;7394167;19;1577;-47
2023/11/19 07:44:35;;;;;;;;;;;;;;;18.20;54.95;100930.66;7393061;19;1431;-46
2023/11/19 07:47:05;;;;;;;;;;;;;;;18.18;55.31;100913.88;7392115;19;1850;-47
2023/11/19 07:49:33;;;;;;;;;;;;;;;18.16;55.37;100917.69;7390478;19;2030;-47
2023/11/19 07:52:02;;;;;;;;;;;;;;;18.21;55.26;100921.69;7392909;19;1568;-47
2023/11/19 07:54:31;;;;;;;;;;;;;;;18.23;55.32;100926.91;7392337;19;1491;-47
2023/11/19 07:56:59;;;;;;;;;;;;;;;18.21;55.01;100926.19;7393513;19;1577;-47
2023/11/19 07:59:27;;;;;;;;;;;;;;;18.25;55.04;100928.47;7392988;19;1488;-47
2023/11/19 08:01:58;;;;;;;;;;;;;;;18.28;55.11;100938.94;7392986;19;1483;-47
2023/11/19 08:04:27;;;;;;;;;;;;;;;18.29;55.03;100940.63;7392162;19;1782;-47
2023/11/19 08:06:55;;;;;;;;;;;;;;;18.33;54.88;100922.50;7390901;19;1904;-47
2023/11/19 08:09:23;;;;;;;;;;;;;;;18.37;54.66;100942.69;7393639;19;1459;-47
2023/11/19 08:11:52;;;;;;;;;;;;;;;18.37;54.92;100909.72;7392502;19;1364;-47
2023/11/19 08:14:20;;;;;;;;;;;;;;;18.36;54.98;100910.66;7392325;19;1613;-47
2023/11/19 08:16:48;;;;;;;;;;;;;;;18.42;54.85;100918.19;7390506;19;1406;-47
2023/11/19 08:19:19;;;;;;;;;;;;;;;18.48;54.47;100928.38;7391037;19;1491;-47
2023/11/19 08:21:47;;;;;;;;;;;;;;;18.45;54.93;100916.09;7391890;19;1564;-47
2023/11/19 08:24:16;;;;;;;;;;;;;;;18.48;54.59;100933.72;7390902;19;1427;-47
2023/11/19 08:26:44;;;;;;;;;;;;;;;18.46;54.76;100930.34;7389733;19;1867;-47
2023/11/19 08:29:13;;;;;;;;;;;;;;;18.47;54.71;100903.44;7389542;19;1590;-47
2023/11/19 08:31:41;;;;;;;;;;;;;;;18.48;54.96;100920.34;7391931;19;1534;-47
2023/11/19 08:34:10;;;;;;;;;;;;;;;18.47;54.75;100924.88;7389784;19;1401;-47
2023/11/19 08:36:41;;;;;;;;;;;;;;;18.49;54.90;100916.72;7391122;19;1856;-47
2023/11/19 08:39:09;;;;;;;;;;;;;;;18.52;54.85;100924.47;7390414;19;1232;-47
2023/11/19 08:41:38;;;;;;;;;;;;;;;18.53;54.71;100926.19;7392246;19;1594;-47
2023/11/19 08:44:06;;;;;;;;;;;;;;;18.55;54.74;100934.94;7397153;19;1712;-47
2023/11/19 08:46:35;;;;;;;;;;;;;;;18.58;54.65;100929.34;7398142;19;1847;-47
2023/11/19 08:49:03;;;;;;;;;;;;;;;18.63;54.71;100928.94;7399403;19;1834;-47
2023/11/19 08:51:31;;;;;;;;;;;;;;;18.61;54.85;100925.53;7398081;19;1459;-47
2023/11/19 08:54:02;;;;;;;;;;;;;;;18.61;54.77;100906.78;7399318;19;1371;-47
2023/11/19 08:56:32;;;;;;;;;;;;;;;18.60;54.90;100911.31;7398829;19;1589;-46
2023/11/19 08:59:01;;;;;;;;;;;;;;;18.64;54.89;100923.47;7398757;19;1529;-47
2023/11/19 09:01:29;;;;;;;;;;;;;;;18.65;54.48;100914.44;7396205;19;2454;-47
2023/11/19 09:03:57;;;;;;;;;;;;;;;18.66;54.63;100908.13;7397276;19;1566;-47
2023/11/19 09:06:26;;;;;;;;;;;;;;;18.71;54.65;100917.59;7398059;19;1849;-47
2023/11/19 09:08:58;;;;;;;;;;;;;;;18.70;54.74;100900.63;7399642;19;1735;-47
2023/11/19 09:11:29;;;;;;;;;;;;;;;18.71;54.78;100898.84;7398063;19;1507;-47
2023/11/19 09:13:57;;;;;;;;;;;;;;;18.72;54.88;100905.88;7398781;19;1472;-47
2023/11/19 09:16:25;;;;;;;;;;;;;;;18.70;54.79;100892.59;7398944;19;1547;-47
2023/11/19 09:18:54;;;;;;;;;;;;;;;18.72;54.93;100903.19;7398267;19;1454;-47
2023/11/19 09:21:22;;;;;;;;;;;;;;;18.72;54.80;100885.31;7398749;19;1565;-47
2023/11/19 09:23:50;;;;;;;;;;;;;;;18.75;54.70;100893.06;7398022;19;1575;-47
2023/11/19 09:26:19;;;;;;;;;;;;;;;18.76;54.73;100883.19;7396978;19;1872;-47
2023/11/19 09:28:50;;;;;;;;;;;;;;;18.75;54.82;100877.00;7397796;19;1525;-47
2023/11/19 09:31:18;;;;;;;;;;;;;;;18.74;54.74;100880.69;7397952;19;1546;-47
2023/11/19 09:33:47;;;;;;;;;;;;;;;18.79;54.89;100881.16;7398725;19;1114;-45
2023/11/19 09:36:16;;;;;;;;;;;;;;;18.77;54.97;100879.56;7398568;19;1568;-47
2023/11/19 09:38:44;;;;;;;;;;;;;;;18.75;54.86;100868.13;7397118;19;1752;-47
2023/11/19 09:41:13;;;;;;;;;;;;;;;18.79;54.97;100877.59;7396918;19;1576;-47
2023/11/19 09:43:42;;;;;;;;;;;;;;;18.76;54.87;100869.81;7397523;19;1542;-47
2023/11/19 09:46:13;;;;;;;;;;;;;;;18.78;54.69;100868.72;7396235;19;1864;-47
2023/11/19 09:48:42;;;;;;;;;;;;;;;18.83;54.60;100860.31;7396871;19;1542;-47
2023/11/19 09:51:11;;;;;;;;;;;;;;;18.81;54.92;100859.59;7397569;19;1577;-47
2023/11/19 09:53:39;;;;;;;;;;;;;;;18.84;54.64;100860.19;7396619;19;1614;-47
2023/11/19 09:56:08;;;;;;;;;;;;;;;18.87;54.89;100872.44;7395649;19;1512;-47
2023/11/19 09:58:37;;;;;;;;;;;;;;;18.78;54.79;100865.16;7396733;19;1570;-47
2023/11/19 10:01:07;;;;;;;;;;;;;;;18.78;54.69;100883.91;7397055;19;1582;-47
2023/11/19 10:03:39;;;;;;;;;;;;;;;18.79;54.93;100856.16;7397570;19;1514;-47
2023/11/19 10:06:09;;;;;;;;;;;;;;;18.79;54.79;100867.75;7396369;19;1855;-47
2023/11/19 10:08:40;;;;;;;;;;;;;;;18.81;54.86;100865.78;7397517;19;1484;-47
2023/11/19 10:11:08;;;;;;;;;;;;;;;18.88;54.58;100861.63;7396368;19;1478;-47
2023/11/19 10:13:37;;;;;;;;;;;;;;;18.77;54.75;100868.84;7395668;19;1502;-47
2023/11/19 10:16:06;;;;;;;;;;;;;;;18.72;55.04;100850.50;7395920;19;1600;-47
2023/11/19 10:18:41;;;;;;;;;;;;;;;18.84;54.63;100849.47;7394728;19;1466;-47
2023/11/19 10:21:11;;;;;;;;;;;;;;;18.86;54.63;100831.41;7396436;19;1188;-47
2023/11/19 10:23:51;;;;;;;;;;;;;;;18.88;54.78;100842.00;7395948;19;1204;-47
2023/11/19 10:26:20;;;;;;;;;;;;;;;18.87;54.83;100843.81;7396871;19;1845;-47
2023/11/19 10:28:49;;;;;;;;;;;;;;;18.86;54.82;100838.59;7395827;19;1732;-47
2023/11/19 10:31:18;;;;;;;;;;;;;;;18.90;54.58;100861.47;7395470;19;1522;-47
2023/11/19 10:33:48;;;;;;;;;;;;;;;18.94;54.68;100844.16;7397337;19;1214;-47
2023/11/19 10:36:17;;;;;;;;;;;;;;;18.89;54.75;100830.28;7395991;19;1256;-47
2023/11/19 10:38:54;;;;;;;;;;;;;;;18.91;54.92;100836.38;7395815;19;1467;-47
2023/11/19 10:41:31;;;;;;;;;;;;;;;18.76;55.02;100829.63;7395277;19;1474;-47
2023/11/19 10:44:00;;;;;;;;;;;;;;;18.67;55.17;100809.84;7395331;19;1472;-47
2023/11/19 10:46:39;;;;;;;;;;;;;;;18.66;55.03;100830.44;7395126;19;1847;-47
2023/11/19 10:49:10;;;;;;;;;;;;;;;18.63;55.29;100840.56;7394802;19;1554;-47
2023/11/19 10:51:38;;;;;;;;;;;;;;;18.68;55.27;100827.59;7395150;19;1479;-47
2023/11/19 10:54:09;;;;;;;;;;;;;;;18.76;55.03;100832.28;7394261;19;1479;-47
2023/11/19 10:56:37;;;;;;;;;;;;;;;18.78;55.01;100833.00;7394893;19;1549;-47
2023/11/19 10:59:05;;;;;;;;;;;;;;;18.75;54.96;100812.72;7395202;19;1452;-47
2023/11/19 11:01:38;;;;;;;;;;;;;;;18.71;55.00;100807.75;7394990;19;1486;-47
2023/11/19 11:04:08;;;;;;;;;;;;;;;18.74;55.18;100828.91;7395105;19;1571;-47
2023/11/19 11:06:39;;;;;;;;;;;;;;;18.78;54.80;100828.53;7393585;19;1869;-47
2023/11/19 11:09:11;;;;;;;;;;;;;;;18.84;54.78;100817.31;7395289;19;1605;-47
2023/11/19 11:11:43;;;;;;;;;;;;;;;18.88;54.76;100815.22;7395038;19;1482;-47
2023/11/19 11:14:14;;;;;;;;;;;;;;;18.92;54.59;100822.00;7394491;19;1753;-47
2023/11/19 11:16:45;;;;;;;;;;;;;;;18.92;54.63;100819.31;7393882;19;1609;-47
2023/11/19 11:19:14;;;;;;;;;;;;;;;18.93;54.79;100799.56;7393787;19;1325;-47
2023/11/19 11:21:47;;;;;;;;;;;;;;;18.84;54.55;100784.28;7394155;19;1415;-47
2023/11/19 11:24:24;;;;;;;;;;;;;;;18.79;54.99;100786.50;7393782;19;1462;-47
2023/11/19 11:27:00;;;;;;;;;;;;;;;18.79;55.08;100791.88;7393574;19;1834;-47
2023/11/19 11:29:34;;;;;;;;;;;;;;;18.78;55.02;100784.78;7394312;19;1570;-47
2023/11/19 11:32:09;;;;;;;;;;;;;;;18.79;55.07;100798.09;7394710;19;1604;-47
2023/11/19 11:34:55;;;;;;;;;;;;;;;18.78;54.89;100774.06;7394209;19;1554;-47
2023/11/19 11:37:29;;;;;;;;;;;;;;;18.80;55.19;100778.38;7393689;19;1450;-47
2023/11/19 11:39:59;;;;;;;;;;;;;;;18.79;55.04;100781.16;7393588;19;1361;-47
2023/11/19 11:42:37;;;;;;;;;;;;;;;18.80;55.27;100786.41;7393088;19;1426;-47
2023/11/19 11:45:07;;;;;;;;;;;;;;;18.84;54.91;100784.28;7393865;19;1597;-47
2023/11/19 11:47:51;;;;;;;;;;;;;;;18.87;54.65;100797.44;7392541;19;1865;-47
2023/11/19 11:50:21;;;;;;;;;;;;;;;18.82;54.97;100783.56;7393185;19;1524;-47
2023/11/19 11:53:05;;;;;;;;;;;;;;;18.81;55.15;100796.13;7392265;19;1854;-47
2023/11/19 11:55:39;;;;;;;;;;;;;;;18.80;54.78;100788.22;7392916;19;2133;-47
2023/11/19 11:58:08;;;;;;;;;;;;;;;18.81;55.16;100811.38;7392982;19;1491;-47
2023/11/19 12:00:40;;;;;;;;;;;;;;;18.81;54.94;100801.47;7392933;19;1652;-47
2023/11/19 12:03:09;;;;;;;;;;;;;;;18.82;55.14;100807.69;7394023;19;1107;-47
2023/11/19 12:05:41;;;;;;;;;;;;;;;18.75;55.16;100802.00;7390488;19;1498;-45
2023/11/19 12:08:11;;;;;;;;;;;;;;;18.74;55.34;100804.78;7392034;19;1860;-47
2023/11/19 12:10:48;;;;;;;;;;;;;;;18.74;55.13;100788.72;7393322;19;1813;-47
2023/11/19 12:13:18;;;;;;;;;;;;;;;18.74;55.25;100810.16;7392458;19;1498;-47
2023/11/19 12:16:04;;;;;;;;;;;;;;;18.77;55.00;100794.66;7392807;19;1394;-47
2023/11/19 12:18:33;;;;;;;;;;;;;;;18.84;54.99;100787.84;7396064;19;2020;-47
2023/11/19 12:21:02;;;;;;;;;;;;;;;18.90;54.76;100789.13;7400894;19;1731;-47
2023/11/19 12:23:31;;;;;;;;;;;;;;;18.93;54.58;100782.66;7399804;19;1926;-47
2023/11/19 12:26:03;;;;;;;;;;;;;;;18.97;54.36;100792.13;7399621;19;1499;-47
2023/11/19 12:28:31;;;;;;;;;;;;;;;18.92;54.73;100786.31;7396465;19;1860;-47
2023/11/19 12:31:11;;;;;;;;;;;;;;;18.95;54.71;100784.19;7400544;19;1605;-47
2023/11/19 12:33:39;;;;;;;;;;;;;;;18.94;54.43;100787.88;7399738;19;1581;-47
2023/11/19 12:36:08;;;;;;;;;;;;;;;18.95;54.66;100778.00;7399599;19;1856;-47
2023/11/19 12:38:38;;;;;;;;;;;;;;;18.89;54.50;100787.44;7399837;19;1604;-47
2023/11/19 12:41:11;;;;;;;;;;;;;;;18.53;54.78;100733.38;7400224;19;1547;-47
2023/11/19 12:43:40;;;;;;;;;;;;;;;18.79;54.90;100794.53;7399612;19;1823;-47
2023/11/19 12:46:19;;;;;;;;;;;;;;;18.72;55.34;100786.19;7399228;19;1435;-47
2023/11/19 12:48:47;;;;;;;;;;;;;;;18.72;55.33;100790.69;7397196;19;1854;-47
2023/11/19 12:51:16;;;;;;;;;;;;;;;18.69;55.08;100776.56;7399126;19;1606;-47
2023/11/19 12:53:53;;;;;;;;;;;;;;;18.78;54.80;100769.59;7398677;19;1565;-47
2023/11/19 12:56:25;;;;;;;;;;;;;;;18.84;54.53;100773.56;7399439;19;1621;-47
2023/11/19 12:58:53;;;;;;;;;;;;;;;18.74;55.03;100773.53;7399735;19;1387;-47
2023/11/19 13:01:23;;;;;;;;;;;;;;;18.71;55.14;100762.22;7399480;19;1475;-47